Terminal Aerodrome Forecast
Issued by NWS

Home | Current Version | Previous Version | Text Only | Print | Product List | Glossary On
Versions: 1 2 3 4 5 6 7 8 9 10 11 12 13 14 15 16 17 18 19 20 21 22
000
FTUS43 KMPX 201700
TAFAXN
TAF
KAXN 201732Z 2018/2118 13009KT P6SM SCT250
     FM210000 12010KT P6SM BKN070
     FM210400 14007KT 6SM BR VCSH SCT006 OVC050
      TEMPO 2105/2109 4SM TSRA OVC050CB
     FM210900 10008KT 6SM -DZ BR BKN006 OVC020=

USA.gov is the U.S. government's official web portal to all federal, state and local government web resources and services.